Time;durP1;ratioP1;P1;durP2;ratioP2;P2;SDS_P1;SDS_P2;PMS_P1;PMS_P2;Temp;Humidity;BMP_temperature;BMP_pressure;BME280_temperature;BME280_humidity;BME280_pressure;Samples;Min_cycle;Max_cycle;Signal;HPM_P1;HPM_P2
2021/07/07 00:00:39;;;;;;;5.63;2.37;;;15.70;99.90;;;;;;4360021;32;20202;-60
2021/07/07 00:03:06;;;;;;;6.50;2.50;;;15.70;99.90;;;;;;4360873;32;20153;-59
2021/07/07 00:05:34;;;;;;;8.27;2.13;;;15.70;99.90;;;;;;4359300;33;20168;-60
2021/07/07 00:08:02;;;;;;;3.90;2.00;;;15.70;99.90;;;;;;4358734;32;20242;-60
2021/07/07 00:10:33;;;;;;;5.53;2.40;;;15.70;99.90;;;;;;4358853;33;20148;-61
2021/07/07 00:13:02;;;;;;;8.17;2.53;;;15.70;99.90;;;;;;4358617;33;20161;-60
2021/07/07 00:15:31;;;;;;;4.10;2.40;;;15.50;99.90;;;;;;4358908;33;20203;-59
2021/07/07 00:17:58;;;;;;;5.83;2.47;;;15.40;99.90;;;;;;4357564;32;20167;-60
2021/07/07 00:20:33;;;;;;;7.23;2.30;;;15.30;99.90;;;;;;4359075;32;20157;-59
2021/07/07 00:22:59;;;;;;;9.43;2.90;;;15.20;99.90;;;;;;4356501;33;20722;-59
2021/07/07 00:25:29;;;;;;;7.57;2.50;;;15.20;99.90;;;;;;4359211;33;20148;-59
2021/07/07 00:27:57;;;;;;;5.03;2.43;;;15.10;99.90;;;;;;4359340;32;20224;-59
2021/07/07 00:30:27;;;;;;;5.10;2.60;;;15.00;99.90;;;;;;4358954;33;20303;-60
2021/07/07 00:32:54;;;;;;;6.93;2.90;;;14.90;99.90;;;;;;4358799;33;20165;-59
2021/07/07 00:35:21;;;;;;;6.77;2.60;;;14.80;99.90;;;;;;4359359;33;20171;-59
2021/07/07 00:37:48;;;;;;;6.20;2.50;;;14.80;99.90;;;;;;4358862;32;20179;-59
2021/07/07 00:40:15;;;;;;;7.00;2.67;;;14.80;99.90;;;;;;4358817;33;20188;-59
2021/07/07 00:42:43;;;;;;;5.53;2.93;;;14.80;99.90;;;;;;4360205;33;20168;-59
2021/07/07 00:45:11;;;;;;;4.20;2.40;;;14.80;99.90;;;;;;4358920;33;20352;-61
2021/07/07 00:47:38;;;;;;;5.73;2.50;;;14.70;99.90;;;;;;4358936;32;20161;-59
2021/07/07 00:50:07;;;;;;;4.73;2.70;;;14.70;99.90;;;;;;4358712;33;20228;-61
2021/07/07 00:52:34;;;;;;;7.13;2.83;;;14.60;99.90;;;;;;4358277;33;20141;-61
2021/07/07 00:55:05;;;;;;;6.70;2.50;;;14.60;99.90;;;;;;4359185;33;20179;-61
2021/07/07 00:57:35;;;;;;;10.33;2.80;;;14.60;99.90;;;;;;4358436;32;20164;-61
2021/07/07 01:00:06;;;;;;;4.60;2.63;;;14.60;99.90;;;;;;4346081;33;20566;-62
2021/07/07 01:02:36;;;;;;;5.93;3.20;;;14.60;99.90;;;;;;4357256;33;20467;-62
2021/07/07 01:05:04;;;;;;;5.23;2.80;;;14.50;99.90;;;;;;4358693;33;20156;-61
2021/07/07 01:07:31;;;;;;;8.07;2.73;;;14.50;99.90;;;;;;4358048;33;20195;-62
2021/07/07 01:10:01;;;;;;;11.07;3.00;;;14.40;99.90;;;;;;4358985;32;20239;-61
2021/07/07 01:12:28;;;;;;;5.87;2.60;;;14.40;99.90;;;;;;4362610;32;20145;-60
2021/07/07 01:14:55;;;;;;;6.23;2.70;;;14.40;99.90;;;;;;4358958;33;20148;-61
2021/07/07 01:17:24;;;;;;;10.43;3.30;;;14.40;99.90;;;;;;4362784;33;20160;-61
2021/07/07 01:19:52;;;;;;;10.03;2.80;;;14.40;99.90;;;;;;4356738;32;20263;-61
2021/07/07 01:22:20;;;;;;;4.50;2.90;;;14.40;99.90;;;;;;4362998;33;20256;-61
2021/07/07 01:24:47;;;;;;;5.47;3.17;;;14.40;99.90;;;;;;4362834;33;20153;-62
2021/07/07 01:27:14;;;;;;;4.17;2.70;;;14.30;99.90;;;;;;4362351;33;20585;-61
2021/07/07 01:29:41;;;;;;;7.23;3.20;;;14.30;99.90;;;;;;4358166;32;20614;-61
2021/07/07 01:32:08;;;;;;;5.83;3.13;;;14.30;99.90;;;;;;4363278;32;20145;-60
2021/07/07 01:34:34;;;;;;;5.87;3.23;;;14.30;99.90;;;;;;4363653;32;20169;-60
2021/07/07 01:37:02;;;;;;;7.83;3.03;;;14.30;99.90;;;;;;4362777;33;20155;-60
2021/07/07 01:39:30;;;;;;;8.70;3.33;;;14.30;99.90;;;;;;4360308;32;20224;-62
2021/07/07 01:41:57;;;;;;;9.17;3.40;;;14.20;99.90;;;;;;4362932;32;20208;-61
2021/07/07 01:44:24;;;;;;;7.00;3.47;;;14.20;99.90;;;;;;4363001;32;20161;-61
2021/07/07 01:46:51;;;;;;;5.50;3.30;;;14.30;99.90;;;;;;4363851;32;20188;-61
2021/07/07 01:49:18;;;;;;;8.47;3.43;;;14.30;99.90;;;;;;4358640;32;20144;-61
2021/07/07 01:51:45;;;;;;;9.13;3.53;;;14.40;99.90;;;;;;4347579;33;20171;-61
2021/07/07 01:54:12;;;;;;;7.80;2.93;;;14.40;99.90;;;;;;4356987;33;20220;-62
2021/07/07 01:56:40;;;;;;;11.33;3.57;;;14.40;99.90;;;;;;4362355;33;20164;-61
2021/07/07 01:59:07;;;;;;;6.00;2.80;;;14.30;99.90;;;;;;4362243;32;20712;-61
2021/07/07 02:01:34;;;;;;;7.80;3.30;;;14.30;99.90;;;;;;4348163;33;20176;-61
2021/07/07 02:04:01;;;;;;;8.83;3.63;;;14.30;99.90;;;;;;4354593;33;20230;-60
2021/07/07 02:06:29;;;;;;;7.30;3.67;;;14.30;99.90;;;;;;4362654;32;20156;-61
2021/07/07 02:08:56;;;;;;;7.47;3.30;;;14.30;99.90;;;;;;4363018;32;20149;-61
2021/07/07 02:11:23;;;;;;;7.70;3.13;;;14.30;99.90;;;;;;4360164;32;20153;-59
2021/07/07 02:13:51;;;;;;;6.77;3.30;;;14.40;99.90;;;;;;4363872;32;20569;-60
2021/07/07 02:16:18;;;;;;;5.63;2.90;;;14.40;99.90;;;;;;4362620;32;20502;-60
2021/07/07 02:18:45;;;;;;;9.33;3.23;;;14.50;99.90;;;;;;4360794;33;20203;-62
2021/07/07 02:21:12;;;;;;;3.83;3.07;;;14.50;99.90;;;;;;4359924;32;20141;-61
2021/07/07 02:23:39;;;;;;;7.43;3.37;;;14.60;99.90;;;;;;4360588;32;20162;-62
2021/07/07 02:26:06;;;;;;;10.57;3.43;;;14.60;99.90;;;;;;4362491;32;20164;-61
2021/07/07 02:28:33;;;;;;;5.03;2.63;;;14.70;99.90;;;;;;4361686;33;20171;-61
2021/07/07 02:31:01;;;;;;;5.00;2.60;;;14.70;99.90;;;;;;4359490;32;20153;-59
2021/07/07 02:33:28;;;;;;;6.73;3.10;;;14.80;99.90;;;;;;4358325;33;20148;-60
2021/07/07 02:35:56;;;;;;;6.67;2.67;;;14.80;99.90;;;;;;4360654;33;20588;-60
2021/07/07 02:38:25;;;;;;;6.80;2.60;;;14.80;99.90;;;;;;4359727;33;20160;-61
2021/07/07 02:40:53;;;;;;;8.37;2.70;;;14.90;99.90;;;;;;4360313;32;20219;-61
2021/07/07 02:43:20;;;;;;;6.13;3.07;;;14.90;99.90;;;;;;4360271;32;20165;-61
2021/07/07 02:45:48;;;;;;;10.53;2.90;;;14.90;99.90;;;;;;4360861;32;20167;-61
2021/07/07 02:48:16;;;;;;;8.70;2.80;;;14.90;99.90;;;;;;4360522;32;20175;-62
2021/07/07 02:50:44;;;;;;;6.53;2.90;;;14.90;99.90;;;;;;4359767;32;20153;-61
2021/07/07 02:53:12;;;;;;;6.10;2.63;;;15.00;99.90;;;;;;4360302;33;20561;-62
2021/07/07 02:55:39;;;;;;;7.83;2.70;;;14.90;99.90;;;;;;4358643;33;20187;-60
2021/07/07 02:58:06;;;;;;;5.50;2.80;;;14.90;99.90;;;;;;4362022;32;20174;-61
2021/07/07 03:00:34;;;;;;;9.30;2.87;;;14.90;99.90;;;;;;4360390;32;20161;-61
2021/07/07 03:03:04;;;;;;;7.27;3.13;;;14.90;99.90;;;;;;4358951;33;20188;-62
2021/07/07 03:05:35;;;;;;;8.23;3.63;;;14.90;99.90;;;;;;4357675;32;20224;-61
2021/07/07 03:08:02;;;;;;;6.90;3.10;;;14.80;99.90;;;;;;4358351;33;20203;-60
2021/07/07 03:10:29;;;;;;;6.43;3.00;;;14.80;99.90;;;;;;4360028;32;20153;-61
2021/07/07 03:12:56;;;;;;;9.73;3.33;;;14.80;99.90;;;;;;4360427;32;20568;-60
2021/07/07 03:15:25;;;;;;;5.17;3.23;;;14.80;99.90;;;;;;4359780;33;20145;-61
2021/07/07 03:17:52;;;;;;;4.10;2.63;;;14.80;99.90;;;;;;4358177;33;20629;-61
2021/07/07 03:20:19;;;;;;;5.77;2.60;;;14.80;99.90;;;;;;4360197;32;20193;-61
2021/07/07 03:22:47;;;;;;;5.83;3.10;;;14.70;99.90;;;;;;4358517;32;20168;-60
2021/07/07 03:25:14;;;;;;;5.73;2.60;;;14.70;99.90;;;;;;4359107;33;20165;-61
2021/07/07 03:27:41;;;;;;;7.13;3.77;;;14.60;99.90;;;;;;4360464;32;20596;-62
2021/07/07 03:30:09;;;;;;;3.57;2.63;;;14.60;99.90;;;;;;4361686;32;20619;-62
2021/07/07 03:32:36;;;;;;;5.17;3.00;;;14.50;99.90;;;;;;4358954;32;20438;-61
2021/07/07 03:35:04;;;;;;;5.90;3.13;;;14.50;99.90;;;;;;4359474;32;20476;-61
2021/07/07 03:37:31;;;;;;;5.13;2.63;;;14.50;99.90;;;;;;4358511;32;20627;-61
2021/07/07 03:39:59;;;;;;;4.97;3.10;;;14.40;99.90;;;;;;4360718;32;20236;-58
2021/07/07 03:42:26;;;;;;;6.73;2.83;;;14.40;99.90;;;;;;4359464;32;20148;-59
2021/07/07 03:44:53;;;;;;;7.70;3.07;;;14.50;99.90;;;;;;4359250;33;20287;-58
2021/07/07 03:47:20;;;;;;;4.77;3.27;;;14.50;99.90;;;;;;4359874;33;20210;-61
2021/07/07 03:49:52;;;;;;;6.10;3.00;;;14.60;99.90;;;;;;4359439;32;20577;-61
2021/07/07 03:52:23;;;;;;;6.17;2.83;;;14.60;99.90;;;;;;4347917;32;20232;-59
2021/07/07 03:54:52;;;;;;;5.10;2.80;;;14.70;99.90;;;;;;4341143;32;20749;-60
2021/07/07 04:00:01;;;;;;;9.03;3.47;;;14.60;99.90;;;;;;4295473;32;2080562;-60
2021/07/07 04:02:28;;;;;;;6.47;3.37;;;14.60;99.90;;;;;;4360285;32;20228;-61
2021/07/07 04:04:59;;;;;;;5.37;3.07;;;14.50;99.90;;;;;;4359371;32;20162;-60
2021/07/07 04:07:38;;;;;;;3.33;2.87;;;14.60;99.90;;;;;;4358526;32;20239;-61
2021/07/07 04:10:20;;;;;;;5.80;3.13;;;14.70;99.90;;;;;;4359705;32;20323;-63
2021/07/07 04:12:49;;;;;;;4.20;3.00;;;14.70;99.90;;;;;;4371480;32;20503;-62
2021/07/07 04:15:19;;;;;;;7.03;3.20;;;14.70;99.90;;;;;;4374832;32;20156;-59
2021/07/07 04:17:46;;;;;;;5.87;2.57;;;14.70;99.90;;;;;;4374081;32;20148;-60
2021/07/07 04:20:17;;;;;;;4.23;2.97;;;14.60;99.90;;;;;;4374280;32;20153;-63
2021/07/07 04:22:43;;;;;;;4.93;3.17;;;14.60;99.90;;;;;;4372013;32;20203;-60
2021/07/07 04:25:14;;;;;;;5.13;3.60;;;14.70;99.90;;;;;;4374517;32;20675;-59
2021/07/07 04:27:41;;;;;;;6.57;2.70;;;14.70;99.90;;;;;;4373449;32;20278;-60
2021/07/07 04:30:10;;;;;;;4.53;2.90;;;14.70;99.90;;;;;;4382935;32;20152;-61
2021/07/07 04:32:39;;;;;;;5.23;2.87;;;14.70;99.90;;;;;;4382531;32;20148;-61
2021/07/07 04:35:07;;;;;;;4.03;3.17;;;14.70;99.90;;;;;;4375047;32;20140;-61
2021/07/07 04:37:34;;;;;;;4.73;3.00;;;14.80;99.90;;;;;;4374105;32;20250;-59
2021/07/07 04:40:01;;;;;;;6.23;3.37;;;14.90;99.90;;;;;;4374236;32;20175;-60
2021/07/07 04:42:28;;;;;;;6.40;3.30;;;14.90;99.90;;;;;;4373949;32;20149;-62
2021/07/07 04:44:55;;;;;;;6.03;3.50;;;15.00;99.90;;;;;;4374027;32;20149;-62
2021/07/07 04:47:22;;;;;;;4.53;3.20;;;15.10;99.90;;;;;;4375026;32;20164;-60
2021/07/07 04:49:50;;;;;;;5.47;3.00;;;15.40;99.90;;;;;;4376731;32;20174;-59
2021/07/07 04:52:17;;;;;;;5.40;3.17;;;15.60;99.90;;;;;;4378569;32;20247;-61
2021/07/07 04:54:43;;;;;;;4.60;3.10;;;15.90;99.90;;;;;;4375494;32;20591;-60
2021/07/07 04:57:10;;;;;;;7.60;3.27;;;16.00;99.90;;;;;;4378220;32;20148;-61
2021/07/07 04:59:37;;;;;;;4.97;3.00;;;16.00;99.90;;;;;;4377824;32;20156;-59
2021/07/07 05:02:04;;;;;;;6.37;3.10;;;15.80;99.90;;;;;;4377067;32;20168;-60
2021/07/07 05:04:31;;;;;;;7.23;3.00;;;15.80;99.90;;;;;;4376980;32;20149;-61
2021/07/07 05:06:59;;;;;;;5.80;3.77;;;16.00;99.90;;;;;;4378727;32;20144;-58
2021/07/07 05:09:26;;;;;;;4.53;3.03;;;16.20;99.90;;;;;;4376547;32;20152;-60
2021/07/07 05:11:53;;;;;;;9.37;3.83;;;16.30;99.90;;;;;;4376171;32;20140;-60
2021/07/07 05:14:20;;;;;;;5.13;3.80;;;16.40;99.90;;;;;;4374895;32;20232;-62
2021/07/07 05:16:47;;;;;;;9.43;4.33;;;16.50;99.90;;;;;;4374734;32;20162;-60
2021/07/07 05:19:14;;;;;;;5.93;3.50;;;16.70;99.90;;;;;;4376131;32;20249;-62
2021/07/07 05:21:42;;;;;;;4.40;3.70;;;17.00;99.90;;;;;;4377671;32;20212;-61
2021/07/07 05:24:12;;;;;;;5.83;4.10;;;17.10;99.90;;;;;;4376278;32;20149;-61
2021/07/07 05:26:39;;;;;;;6.47;3.37;;;17.40;99.90;;;;;;4376630;32;20203;-61
2021/07/07 05:29:08;;;;;;;6.57;4.27;;;17.50;99.90;;;;;;4377206;32;20224;-62
2021/07/07 05:31:37;;;;;;;4.83;3.60;;;18.10;99.90;;;;;;4374955;32;20159;-61
2021/07/07 05:34:04;;;;;;;5.83;3.60;;;20.00;99.90;;;;;;4376122;32;20145;-59
2021/07/07 05:36:31;;;;;;;8.80;3.30;;;20.20;99.90;;;;;;4375482;32;20145;-60
2021/07/07 05:39:02;;;;;;;4.47;2.40;;;20.70;99.90;;;;;;4374796;32;20183;-63
2021/07/07 05:41:31;;;;;;;3.53;2.87;;;24.30;99.90;;;;;;4376160;32;20239;-62
2021/07/07 05:43:58;;;;;;;5.77;2.67;;;25.40;97.80;;;;;;4375899;32;20163;-62
2021/07/07 05:46:25;;;;;;;3.77;2.47;;;25.00;96.90;;;;;;4374876;32;20556;-60
2021/07/07 05:48:51;;;;;;;3.83;2.43;;;23.80;97.40;;;;;;4374289;32;20187;-59
2021/07/07 05:51:19;;;;;;;5.40;2.67;;;22.80;99.20;;;;;;4375624;32;20180;-62
2021/07/07 05:53:46;;;;;;;3.30;2.80;;;21.90;99.90;;;;;;4375533;32;20149;-63
2021/07/07 05:56:13;;;;;;;7.90;3.40;;;21.20;99.90;;;;;;4374927;32;20443;-60
2021/07/07 05:58:41;;;;;;;4.63;2.50;;;20.70;99.90;;;;;;4375058;32;20175;-62
2021/07/07 06:01:08;;;;;;;5.83;2.77;;;20.30;99.90;;;;;;4376232;32;20248;-60
2021/07/07 06:03:35;;;;;;;3.93;2.50;;;19.80;99.90;;;;;;4376303;32;20272;-61
2021/07/07 06:06:02;;;;;;;3.67;3.03;;;19.40;99.90;;;;;;4374810;32;20156;-62
2021/07/07 06:08:29;;;;;;;7.40;3.57;;;19.30;99.90;;;;;;4376722;32;20251;-62
2021/07/07 06:10:56;;;;;;;5.77;3.17;;;19.20;99.90;;;;;;4376939;32;20644;-61
2021/07/07 06:13:22;;;;;;;4.23;3.17;;;19.10;99.90;;;;;;4376854;32;20573;-60
2021/07/07 06:15:54;;;;;;;4.90;3.47;;;19.10;99.90;;;;;;4374336;32;20152;-60
2021/07/07 06:18:21;;;;;;;5.67;3.20;;;19.00;99.90;;;;;;4372756;32;20149;-62
2021/07/07 06:20:48;;;;;;;10.87;3.60;;;19.20;99.90;;;;;;4373964;32;20228;-61
2021/07/07 06:23:14;;;;;;;6.23;3.10;;;19.50;99.90;;;;;;4374457;32;20168;-61
2021/07/07 06:25:42;;;;;;;5.40;3.13;;;19.70;99.90;;;;;;4374094;32;20214;-62
2021/07/07 06:28:09;;;;;;;5.27;3.07;;;19.90;99.90;;;;;;4375073;32;20194;-62
2021/07/07 06:30:36;;;;;;;5.23;3.23;;;20.00;99.90;;;;;;4375819;32;20230;-61
2021/07/07 06:33:06;;;;;;;6.57;3.67;;;19.90;99.90;;;;;;4375466;32;20145;-61
2021/07/07 06:35:36;;;;;;;6.87;3.83;;;19.90;99.90;;;;;;4374518;32;20163;-62
2021/07/07 06:38:03;;;;;;;7.00;3.57;;;20.10;99.90;;;;;;4361455;32;20223;-61
2021/07/07 06:40:30;;;;;;;5.20;3.40;;;20.30;99.90;;;;;;4369268;32;20307;-61
2021/07/07 06:42:58;;;;;;;6.47;3.17;;;20.50;99.90;;;;;;4373251;32;20195;-62
2021/07/07 06:45:27;;;;;;;4.87;3.50;;;20.70;99.90;;;;;;4373434;32;20140;-61
2021/07/07 06:47:53;;;;;;;4.93;3.43;;;20.70;99.90;;;;;;4374806;32;20207;-59
2021/07/07 06:50:27;;;;;;;6.73;3.97;;;20.50;99.90;;;;;;4373775;32;20160;-60
2021/07/07 06:52:54;;;;;;;5.50;3.57;;;20.50;99.90;;;;;;4374017;32;20267;-60
2021/07/07 06:55:21;;;;;;;7.50;3.80;;;20.50;99.90;;;;;;4374184;32;20259;-62
2021/07/07 06:57:48;;;;;;;6.10;4.07;;;20.30;99.90;;;;;;4374259;32;20228;-61
2021/07/07 07:00:17;;;;;;;6.03;3.90;;;20.10;99.90;;;;;;4375688;32;20212;-61
2021/07/07 07:02:44;;;;;;;8.37;3.97;;;20.00;99.90;;;;;;4372873;32;20210;-61
2021/07/07 07:05:13;;;;;;;4.80;3.83;;;20.30;99.90;;;;;;4372094;32;20202;-62
2021/07/07 07:07:42;;;;;;;6.90;3.47;;;20.70;99.90;;;;;;4373391;32;20218;-60
2021/07/07 07:10:11;;;;;;;5.27;3.60;;;21.20;99.90;;;;;;4372567;32;20152;-62
2021/07/07 07:12:40;;;;;;;4.67;3.40;;;21.60;99.90;;;;;;4373293;32;20160;-61
2021/07/07 07:15:10;;;;;;;7.13;3.80;;;22.10;99.90;;;;;;4370104;32;20144;-62
2021/07/07 07:17:38;;;;;;;8.27;3.37;;;22.00;99.90;;;;;;4371240;32;20541;-61
2021/07/07 07:20:07;;;;;;;5.53;3.37;;;21.70;99.90;;;;;;4374426;32;21045;-60
2021/07/07 07:22:34;;;;;;;7.13;3.30;;;21.30;99.90;;;;;;4371644;32;20168;-60
2021/07/07 07:25:05;;;;;;;4.90;3.43;;;20.80;99.90;;;;;;4373858;32;20178;-61
2021/07/07 07:27:31;;;;;;;8.00;3.40;;;20.30;99.90;;;;;;4372275;32;20141;-61
2021/07/07 07:29:58;;;;;;;6.50;3.53;;;20.10;99.90;;;;;;4374286;32;20179;-61
2021/07/07 07:32:25;;;;;;;6.90;3.60;;;19.90;99.90;;;;;;4373307;32;20148;-61
2021/07/07 07:34:52;;;;;;;6.10;3.90;;;19.90;99.90;;;;;;4375076;32;20162;-62
2021/07/07 07:37:24;;;;;;;6.23;3.33;;;19.90;99.90;;;;;;4373057;32;20171;-63
2021/07/07 07:39:52;;;;;;;7.13;3.93;;;20.20;99.90;;;;;;4372440;32;20144;-62
2021/07/07 07:42:22;;;;;;;6.63;4.63;;;20.50;99.90;;;;;;4371231;32;20207;-62
2021/07/07 07:44:50;;;;;;;6.93;4.07;;;20.70;99.90;;;;;;4372633;32;20187;-60
2021/07/07 07:47:21;;;;;;;8.60;4.43;;;20.70;99.90;;;;;;4372330;32;20210;-64
2021/07/07 07:49:47;;;;;;;8.03;4.00;;;20.60;99.90;;;;;;4370503;32;20228;-62
2021/07/07 07:52:18;;;;;;;6.63;4.00;;;20.60;99.90;;;;;;4372325;32;20200;-62
2021/07/07 07:54:44;;;;;;;7.20;3.73;;;20.90;99.90;;;;;;4371849;32;20280;-62
2021/07/07 07:57:12;;;;;;;8.23;3.87;;;21.90;99.90;;;;;;4371234;32;20203;-63
2021/07/07 07:59:40;;;;;;;8.17;3.83;;;23.00;99.90;;;;;;4370314;32;20148;-63
2021/07/07 08:02:08;;;;;;;4.10;3.00;;;24.20;99.80;;;;;;4366684;32;20253;-62
2021/07/07 08:04:35;;;;;;;4.90;2.43;;;25.40;97.90;;;;;;4370479;32;20199;-64
2021/07/07 08:07:03;;;;;;;9.27;4.23;;;26.20;96.80;;;;;;4372022;32;20167;-64
2021/07/07 08:09:30;;;;;;;6.12;2.45;;;27.20;94.30;;;;;;4371240;32;20144;-63
2021/07/07 08:11:57;;;;;;;5.93;2.35;;;29.30;92.40;;;;;;4371921;32;20279;-62
2021/07/07 08:14:25;;;;;;;6.10;2.12;;;32.20;82.70;;;;;;4372021;32;20144;-63
2021/07/07 08:16:53;;;;;;;4.80;2.20;;;36.00;72.80;;;;;;4372577;32;20613;-62
2021/07/07 08:19:24;;;;;;;4.87;1.65;;;39.80;56.70;;;;;;4369836;32;20186;-63
2021/07/07 08:21:50;;;;;;;6.20;2.00;;;39.50;49.70;;;;;;4372458;32;20239;-64
2021/07/07 08:24:17;;;;;;;5.00;2.03;;;40.00;50.40;;;;;;4372902;32;20167;-64
2021/07/07 08:26:44;;;;;;;3.55;1.60;;;39.70;46.90;;;;;;4371242;32;20480;-64
2021/07/07 08:29:11;;;;;;;5.57;1.58;;;38.20;49.30;;;;;;4371887;32;20157;-62
2021/07/07 08:31:44;;;;;;;4.20;1.67;;;36.60;49.10;;;;;;4371986;32;20156;-64
2021/07/07 08:34:13;;;;;;;3.05;1.70;;;36.40;50.60;;;;;;4372664;32;20144;-62
2021/07/07 08:36:39;;;;;;;3.67;1.65;;;33.90;50.90;;;;;;4372042;32;20187;-62
2021/07/07 08:39:07;;;;;;;3.58;1.83;;;31.60;55.30;;;;;;4374918;32;20180;-60
2021/07/07 08:41:34;;;;;;;4.35;1.75;;;31.00;60.10;;;;;;4371502;32;20152;-63
2021/07/07 08:44:08;;;;;;;6.10;1.90;;;35.60;54.70;;;;;;4372756;32;20170;-62
2021/07/07 08:46:36;;;;;;;5.07;1.45;;;40.30;48.10;;;;;;4371974;32;20731;-62
2021/07/07 08:49:04;;;;;;;5.93;1.58;;;44.30;44.40;;;;;;4371616;32;20159;-64
2021/07/07 08:51:33;;;;;;;4.28;1.65;;;47.20;40.50;;;;;;4373801;32;20766;-64
2021/07/07 08:54:05;;;;;;;5.37;1.95;;;48.80;37.30;;;;;;4372988;32;20156;-64
2021/07/07 08:56:32;;;;;;;5.40;1.85;;;46.20;35.90;;;;;;4374924;32;20226;-65
2021/07/07 08:59:02;;;;;;;3.85;1.73;;;40.50;39.40;;;;;;4375492;32;20500;-66
2021/07/07 09:01:28;;;;;;;3.65;1.90;;;36.30;43.60;;;;;;4371671;32;20183;-65
2021/07/07 09:03:55;;;;;;;5.25;1.70;;;33.80;47.20;;;;;;4373151;32;20214;-62
2021/07/07 09:06:22;;;;;;;3.33;1.80;;;36.10;47.60;;;;;;4372766;32;20260;-62
2021/07/07 09:08:51;;;;;;;3.90;1.90;;;37.80;43.60;;;;;;4372766;32;20167;-61
2021/07/07 09:11:19;;;;;;;5.03;1.77;;;39.00;43.10;;;;;;4371733;32;20161;-65
2021/07/07 09:13:49;;;;;;;4.32;2.12;;;40.30;41.00;;;;;;4373659;32;20561;-63
2021/07/07 09:16:18;;;;;;;7.43;2.42;;;39.40;41.70;;;;;;4371810;32;20227;-63
2021/07/07 09:18:48;;;;;;;8.13;2.42;;;36.20;43.20;;;;;;4372773;32;20144;-63
2021/07/07 09:21:26;;;;;;;7.82;4.03;;;32.80;47.60;;;;;;4369745;32;20153;-62
2021/07/07 09:23:55;;;;;;;4.95;2.53;;;30.00;52.60;;;;;;4372982;32;20276;-62
2021/07/07 09:26:31;;;;;;;7.25;3.10;;;28.00;56.70;;;;;;4372116;32;20219;-61
2021/07/07 09:29:00;;;;;;;6.75;3.40;;;26.60;60.10;;;;;;4373151;32;20190;-61
2021/07/07 09:31:38;;;;;;;6.68;2.85;;;27.90;65.40;;;;;;4372361;32;20179;-63
2021/07/07 09:34:13;;;;;;;7.60;3.00;;;33.70;55.10;;;;;;4372524;32;20187;-61
2021/07/07 09:36:45;;;;;;;5.55;3.10;;;34.20;49.50;;;;;;4375049;32;20167;-61
2021/07/07 09:39:14;;;;;;;6.05;3.37;;;31.40;52.40;;;;;;4372109;32;20226;-63
2021/07/07 09:41:41;;;;;;;6.22;2.85;;;28.70;57.10;;;;;;4374817;32;20187;-65
2021/07/07 09:44:10;;;;;;;7.57;2.97;;;26.90;61.20;;;;;;4374850;32;20160;-63
2021/07/07 09:46:38;;;;;;;6.32;3.37;;;25.80;65.80;;;;;;4375091;32;20160;-63
2021/07/07 09:49:07;;;;;;;3.40;2.70;;;24.90;68.60;;;;;;4375568;32;21348;-64
2021/07/07 09:51:34;;;;;;;5.10;2.87;;;24.30;73.20;;;;;;4374582;32;20153;-64
2021/07/07 09:54:05;;;;;;;8.02;2.95;;;24.00;78.10;;;;;;4377025;32;20228;-65
2021/07/07 09:56:37;;;;;;;5.40;2.77;;;24.00;81.00;;;;;;4374983;32;20709;-62
2021/07/07 09:59:04;;;;;;;5.83;2.70;;;24.20;81.60;;;;;;4374758;32;20187;-61
2021/07/07 10:01:34;;;;;;;5.37;2.90;;;24.30;84.90;;;;;;4369509;32;20160;-62
2021/07/07 10:04:10;;;;;;;7.97;2.97;;;25.00;84.10;;;;;;4370353;32;20504;-62
2021/07/07 10:06:37;;;;;;;7.53;2.97;;;25.30;83.30;;;;;;4374929;32;20232;-64
2021/07/07 10:09:04;;;;;;;8.07;3.13;;;25.70;81.80;;;;;;4376124;32;20539;-63
2021/07/07 10:11:35;;;;;;;9.43;2.90;;;26.20;80.40;;;;;;4374891;32;20295;-62
2021/07/07 10:14:02;;;;;;;6.07;3.15;;;26.60;82.20;;;;;;4376345;32;20148;-63
2021/07/07 10:16:30;;;;;;;5.25;3.22;;;26.60;81.50;;;;;;4376284;32;20153;-63
2021/07/07 10:18:57;;;;;;;8.60;2.80;;;26.20;82.30;;;;;;4376160;32;20202;-64
2021/07/07 10:21:24;;;;;;;8.23;3.40;;;26.00;83.90;;;;;;4372392;32;20156;-64
2021/07/07 10:23:53;;;;;;;7.25;3.08;;;26.20;83.80;;;;;;4370610;32;20148;-64
2021/07/07 10:26:21;;;;;;;6.53;3.17;;;26.10;82.20;;;;;;4376575;32;20161;-63
2021/07/07 10:28:52;;;;;;;6.20;3.00;;;25.80;81.70;;;;;;4373637;32;20171;-63
2021/07/07 10:31:20;;;;;;;6.37;3.25;;;25.80;85.10;;;;;;4371627;32;20176;-64
2021/07/07 10:33:48;;;;;;;8.00;3.47;;;25.80;83.10;;;;;;4372640;32;20144;-63
2021/07/07 10:36:18;;;;;;;6.20;3.05;;;25.40;83.40;;;;;;4375701;32;20173;-64
2021/07/07 10:38:59;;;;;;;6.30;3.28;;;25.40;83.40;;;;;;4375260;32;20141;-63
2021/07/07 10:41:47;;;;;;;8.25;3.12;;;25.60;82.50;;;;;;4375414;32;20249;-63
2021/07/07 10:44:52;;;;;;;6.55;3.30;;;25.60;84.20;;;;;;4374013;32;20175;-65
2021/07/07 10:47:38;;;;;;;7.90;3.20;;;25.70;83.30;;;;;;4372390;32;20156;-64
2021/07/07 10:50:35;;;;;;;6.60;2.40;;;25.60;81.90;;;;;;4369846;32;20136;-63
2021/07/07 10:53:23;;;;;;;5.95;2.78;;;25.60;84.30;;;;;;4363638;32;20174;-63
2021/07/07 10:55:56;;;;;;;5.47;2.92;;;25.60;81.60;;;;;;4366163;32;20170;-63
2021/07/07 10:58:29;;;;;;;6.20;2.90;;;25.40;82.50;;;;;;4360120;32;20274;-63
2021/07/07 11:01:30;;;;;;;6.87;2.75;;;24.80;84.50;;;;;;4358814;32;20302;-64
2021/07/07 11:04:03;;;;;;;5.87;2.70;;;23.90;87.70;;;;;;4363019;32;20188;-64
2021/07/07 11:09:28;;;;;;;5.13;2.90;;;22.00;95.10;;;;;;4364510;32;20187;-63
2021/07/07 11:11:54;;;;;;;7.13;3.20;;;21.30;98.00;;;;;;4370893;32;20270;-63
2021/07/07 11:14:25;;;;;;;5.90;2.70;;;21.00;98.60;;;;;;4374408;32;20200;-64
2021/07/07 11:17:00;;;;;;;6.43;2.80;;;21.00;99.00;;;;;;4374979;32;20199;-64
2021/07/07 11:19:39;;;;;;;8.63;3.20;;;21.10;99.70;;;;;;4374465;32;20184;-63
2021/07/07 11:22:06;;;;;;;6.67;3.27;;;21.10;99.90;;;;;;4374301;32;20171;-61
2021/07/07 11:24:33;;;;;;;6.50;3.30;;;21.10;99.90;;;;;;4372374;32;20156;-62
2021/07/07 11:27:02;;;;;;;6.37;3.30;;;21.40;99.50;;;;;;4372780;32;21610;-63
2021/07/07 11:29:29;;;;;;;6.40;2.73;;;22.10;98.50;;;;;;4373136;32;20247;-62
2021/07/07 11:31:58;;;;;;;6.67;3.03;;;22.60;97.60;;;;;;4374450;32;20164;-63
2021/07/07 11:34:41;;;;;;;5.20;3.73;;;22.80;96.00;;;;;;4377587;32;22750;-64
2021/07/07 11:37:08;;;;;;;6.73;3.60;;;23.30;95.90;;;;;;4375025;32;20205;-62
2021/07/07 11:39:35;;;;;;;6.57;3.43;;;24.00;94.80;;;;;;4374928;32;20504;-64
2021/07/07 11:42:05;;;;;;;5.63;3.43;;;24.10;94.00;;;;;;4374718;32;20156;-61
2021/07/07 11:44:44;;;;;;;5.73;3.40;;;23.80;93.70;;;;;;4372948;32;20145;-63
2021/07/07 11:47:25;;;;;;;6.67;3.03;;;23.50;94.30;;;;;;4374783;32;20151;-62
2021/07/07 11:50:06;;;;;;;5.30;3.00;;;23.70;94.10;;;;;;4373986;32;20627;-62
2021/07/07 11:52:33;;;;;;;8.07;3.47;;;23.90;93.20;;;;;;4365639;32;20144;-63
2021/07/07 11:55:00;;;;;;;6.47;3.20;;;24.30;92.60;;;;;;4371627;32;20583;-62
2021/07/07 11:57:27;;;;;;;6.12;2.78;;;24.80;91.50;;;;;;4372463;32;20183;-66
2021/07/07 11:59:55;;;;;;;6.32;3.03;;;25.40;91.70;;;;;;4373813;32;20591;-63
2021/07/07 12:02:23;;;;;;;5.50;2.65;;;25.60;90.60;;;;;;4374802;32;20157;-64
2021/07/07 12:04:53;;;;;;;8.48;3.00;;;25.90;90.60;;;;;;4371221;32;20545;-63
2021/07/07 12:07:21;;;;;;;5.25;2.70;;;26.10;90.20;;;;;;4375590;32;20152;-63
2021/07/07 12:09:49;;;;;;;8.85;3.20;;;26.10;88.40;;;;;;4372653;32;20215;-64
2021/07/07 12:12:16;;;;;;;6.25;2.70;;;25.90;87.80;;;;;;4373470;32;20148;-64
2021/07/07 12:14:43;;;;;;;5.10;2.80;;;26.00;86.30;;;;;;4374254;32;20149;-63
2021/07/07 12:17:12;;;;;;;3.47;2.55;;;25.90;86.50;;;;;;4373205;32;20167;-63
2021/07/07 12:19:41;;;;;;;7.15;2.50;;;26.20;87.00;;;;;;4366282;32;20200;-62
2021/07/07 12:22:15;;;;;;;5.03;2.78;;;26.60;86.00;;;;;;4367017;32;20192;-62
2021/07/07 12:24:43;;;;;;;5.03;2.42;;;26.30;82.60;;;;;;4371572;32;20264;-63
2021/07/07 12:27:13;;;;;;;4.20;2.30;;;26.20;85.60;;;;;;4373200;32;20180;-63
2021/07/07 12:29:42;;;;;;;4.62;2.60;;;26.30;83.60;;;;;;4373006;32;20657;-62
2021/07/07 12:32:12;;;;;;;3.42;2.12;;;26.30;85.00;;;;;;4373976;32;20152;-62
2021/07/07 12:34:45;;;;;;;5.70;2.35;;;25.90;81.90;;;;;;4372256;32;20253;-63
2021/07/07 12:37:14;;;;;;;4.75;2.10;;;25.70;83.90;;;;;;4371765;32;20152;-64
2021/07/07 12:39:43;;;;;;;7.45;3.45;;;25.80;85.20;;;;;;4373048;32;20164;-62
2021/07/07 12:42:14;;;;;;;5.82;3.10;;;25.80;84.00;;;;;;4373458;32;20212;-64
2021/07/07 12:44:43;;;;;;;7.28;2.25;;;26.20;84.70;;;;;;4369357;32;20210;-63
2021/07/07 12:47:15;;;;;;;7.45;3.20;;;26.30;83.50;;;;;;4373811;32;20159;-64
2021/07/07 12:49:49;;;;;;;5.85;2.90;;;26.00;85.20;;;;;;4374510;32;20144;-63
2021/07/07 12:52:22;;;;;;;6.62;2.85;;;25.80;86.00;;;;;;4374095;32;20596;-64
2021/07/07 12:55:07;;;;;;;5.25;2.80;;;25.30;86.20;;;;;;4370722;32;20223;-64
2021/07/07 12:57:45;;;;;;;4.18;2.40;;;24.80;86.30;;;;;;4371768;32;20237;-63
2021/07/07 13:00:14;;;;;;;3.60;2.30;;;24.60;86.50;;;;;;4367894;32;20231;-64